Time;durP1;ratioP1;P1;durP2;ratioP2;P2;SDS_P1;SDS_P2;PMS_P1;PMS_P2;Temp;Humidity;BMP_temperature;BMP_pressure;BME280_temperature;BME280_humidity;BME280_pressure;Samples;Min_cycle;Max_cycle;Signal;HPM_P1;HPM_P2
2023/04/25 04:01:14;;;;;;;2.90;1.85;;;7.60;91.30;;;;;;5057132;22;20233;-90
2023/04/25 04:03:40;;;;;;;3.15;1.60;;;7.60;91.40;;;;;;5024009;28;20195;-90
2023/04/25 04:06:09;;;;;;;2.67;1.77;;;7.50;91.60;;;;;;5033724;28;20190;-89
2023/04/25 04:08:35;;;;;;;2.47;1.70;;;7.50;91.70;;;;;;5033886;28;20210;-90
2023/04/25 04:11:02;;;;;;;2.85;1.70;;;7.50;91.80;;;;;;5034778;28;20203;-91
2023/04/25 04:32:19;;;;;;;4.88;1.48;;;7.30;93.40;;;;;;5594275;23;20226;-90
2023/04/25 04:34:47;;;;;;;3.13;1.85;;;7.30;93.30;;;;;;5036156;28;20198;-90
2023/04/25 04:37:27;;;;;;;4.45;2.00;;;7.50;92.40;;;;;;5037208;28;20210;-89
2023/04/25 04:39:54;;;;;;;1.88;1.55;;;7.50;92.10;;;;;;5019670;28;20559;-91
2023/04/25 04:42:21;;;;;;;3.20;1.70;;;7.60;92.40;;;;;;5039557;28;20199;-90
2023/04/25 04:44:48;;;;;;;3.55;1.80;;;7.60;92.40;;;;;;5040449;28;20659;-90
2023/04/25 04:47:15;;;;;;;3.80;1.70;;;7.60;92.10;;;;;;5021164;28;20213;-90
2023/04/25 04:49:44;;;;;;;2.00;1.80;;;7.50;92.50;;;;;;5032912;28;20570;-88
2023/04/25 04:52:11;;;;;;;1.77;1.60;;;7.60;92.40;;;;;;5010889;28;20707;-90
2023/04/25 04:54:38;;;;;;;1.75;1.48;;;7.50;92.90;;;;;;5030660;28;20206;-91
2023/04/25 04:57:05;;;;;;;2.90;1.70;;;7.50;92.30;;;;;;5034090;28;20222;-90
2023/04/25 04:59:32;;;;;;;1.73;1.50;;;7.50;92.60;;;;;;5036276;28;20265;-90
2023/04/25 05:01:59;;;;;;;2.63;1.58;;;7.50;92.50;;;;;;5026647;28;20206;-90
2023/04/25 05:04:26;;;;;;;2.40;1.80;;;7.40;92.70;;;;;;5002164;28;20596;-89
2023/04/25 05:06:55;;;;;;;2.05;1.70;;;7.40;93.00;;;;;;5035471;28;20241;-89
2023/04/25 05:09:25;;;;;;;4.00;1.77;;;7.40;92.90;;;;;;5034959;28;20786;-90
2023/04/25 05:11:52;;;;;;;2.10;1.58;;;7.50;92.40;;;;;;5018225;28;20234;-89
2023/04/25 05:14:19;;;;;;;2.15;1.95;;;7.70;91.70;;;;;;5041591;28;20212;-91
2023/04/25 05:19:27;;;;;;;1.95;1.60;;;7.80;91.50;;;;;;5013732;28;20203;-91
2023/04/25 05:22:03;;;;;;;3.88;2.03;;;7.80;91.50;;;;;;5014937;28;20203;-91
2023/04/25 05:24:30;;;;;;;2.42;2.08;;;7.80;91.50;;;;;;4992353;28;20599;-91
2023/04/25 05:27:00;;;;;;;2.92;2.08;;;7.70;92.00;;;;;;4998657;28;20207;-90
2023/04/25 05:40:15;;;;;;;3.45;2.10;;;7.80;91.80;;;;;;5033808;28;20202;-94
2023/04/25 05:42:54;;;;;;;3.90;2.00;;;7.70;92.20;;;;;;5053759;28;20221;-93
2023/04/25 05:52:14;;;;;;;4.38;2.20;;;8.10;91.70;;;;;;5022291;28;20184;-92
2023/04/25 05:57:44;;;;;;;3.90;2.00;;;8.30;91.20;;;;;;4986532;28;20207;-91
2023/04/25 06:00:15;;;;;;;8.00;2.53;;;8.50;90.40;;;;;;5007253;28;20207;-92
2023/04/25 06:02:48;;;;;;;7.25;2.53;;;8.70;90.40;;;;;;4998907;28;20234;-92
2023/04/25 06:09:12;;;;;;;4.38;2.38;;;8.90;90.40;;;;;;4998505;28;20187;-90
2023/04/25 06:12:21;;;;;;;2.75;2.13;;;8.80;91.20;;;;;;4981339;28;20262;-91
2023/04/25 06:17:30;;;;;;;2.05;1.77;;;8.10;91.30;;;;;;5017896;28;20248;-92
2023/04/25 06:19:59;;;;;;;3.25;2.00;;;7.70;92.20;;;;;;5002296;28;20215;-91
2023/04/25 06:22:26;;;;;;;2.33;1.97;;;7.30;94.20;;;;;;4999345;28;20237;-91
2023/04/25 06:27:36;;;;;;;6.65;2.15;;;7.00;96.50;;;;;;5008022;28;20206;-91
2023/04/25 06:52:32;;;;;;;3.97;2.30;;;8.00;97.30;;;;;;5022010;28;20302;-92
2023/04/25 12:07:18;;;;;;;3.20;2.22;;;10.10;76.20;;;;;;5190326;22;21337;-93
2023/04/25 12:18:27;;;;;;;1.70;1.60;;;9.90;81.90;;;;;;5037848;28;20219;-92
2023/04/25 12:20:54;;;;;;;2.15;1.27;;;10.00;79.70;;;;;;5023667;28;20210;-94
2023/04/25 12:23:27;;;;;;;2.10;1.40;;;10.00;86.50;;;;;;4995367;28;20230;-92
2023/04/25 12:25:55;;;;;;;3.47;1.50;;;10.10;79.60;;;;;;5019021;28;20199;-92
2023/04/25 12:28:24;;;;;;;1.63;1.50;;;10.00;78.40;;;;;;4998194;28;20644;-91
2023/04/25 12:30:57;;;;;;;1.50;1.10;;;9.90;84.10;;;;;;5013261;28;20214;-90
2023/04/25 12:33:25;;;;;;;1.67;1.25;;;10.00;82.40;;;;;;5011867;28;20198;-91
2023/04/25 12:35:52;;;;;;;1.70;1.30;;;10.00;81.60;;;;;;5001417;28;20204;-91
2023/04/25 12:38:24;;;;;;;1.35;1.23;;;9.90;82.70;;;;;;4997911;28;20652;-92
2023/04/25 12:40:51;;;;;;;2.13;1.15;;;9.70;84.00;;;;;;5014540;28;20199;-91
2023/04/25 12:43:18;;;;;;;1.40;1.30;;;9.80;83.50;;;;;;5015845;28;20199;-90
2023/04/25 12:45:45;;;;;;;1.20;1.10;;;9.90;85.10;;;;;;4997283;28;20191;-89
2023/04/25 12:48:14;;;;;;;1.95;1.30;;;9.90;81.60;;;;;;5013673;28;20254;-90
2023/04/25 12:50:41;;;;;;;2.15;1.30;;;9.90;81.00;;;;;;4995664;28;20203;-90
2023/04/25 12:53:08;;;;;;;1.85;1.45;;;10.10;83.30;;;;;;5014709;28;20754;-90
2023/04/25 12:55:35;;;;;;;1.80;1.30;;;10.30;83.10;;;;;;5013498;28;20203;-91
2023/04/25 12:58:02;;;;;;;2.83;1.38;;;10.30;78.40;;;;;;5013837;28;20223;-90
2023/04/25 13:00:29;;;;;;;1.58;1.40;;;10.40;79.80;;;;;;5011919;28;20200;-90
2023/04/25 13:02:56;;;;;;;2.10;1.40;;;10.40;80.50;;;;;;5008108;28;20201;-90
2023/04/25 13:05:25;;;;;;;1.70;1.58;;;10.20;78.70;;;;;;5008420;28;20207;-90
2023/04/25 13:07:52;;;;;;;1.58;1.35;;;10.20;79.80;;;;;;4988262;28;20875;-90
2023/04/25 13:10:19;;;;;;;1.60;1.50;;;10.30;80.90;;;;;;4976460;28;20518;-90
2023/04/25 13:12:46;;;;;;;1.48;1.38;;;10.20;81.80;;;;;;4983229;28;20571;-89
2023/04/25 13:15:15;;;;;;;1.98;1.42;;;10.00;82.50;;;;;;4984492;28;20207;-90
2023/04/25 13:17:45;;;;;;;1.30;1.20;;;9.90;82.70;;;;;;4994542;28;20266;-87
2023/04/25 13:20:13;;;;;;;1.15;1.08;;;9.80;83.50;;;;;;5003560;28;20195;-89
2023/04/25 13:22:42;;;;;;;1.63;1.17;;;9.60;83.40;;;;;;5012122;28;20199;-89
2023/04/25 13:25:10;;;;;;;1.15;1.00;;;9.70;83.90;;;;;;5010826;28;20209;-90
2023/04/25 13:27:40;;;;;;;1.27;1.10;;;9.50;85.30;;;;;;5011487;28;20200;-90
2023/04/25 13:30:08;;;;;;;1.45;1.15;;;9.40;85.10;;;;;;5010695;28;20195;-90
2023/04/25 13:32:36;;;;;;;1.20;1.10;;;9.30;86.70;;;;;;4993093;28;20252;-89
2023/04/25 13:35:04;;;;;;;1.55;1.40;;;9.30;87.30;;;;;;4996201;28;20282;-90
2023/04/25 13:37:32;;;;;;;1.00;1.00;;;9.40;84.70;;;;;;4996337;28;20231;-90
2023/04/25 13:40:04;;;;;;;1.17;1.08;;;9.40;88.10;;;;;;4979074;28;20203;-90
2023/04/25 13:42:31;;;;;;;1.30;1.20;;;9.50;86.20;;;;;;5011204;28;20203;-89
2023/04/25 13:44:58;;;;;;;1.38;1.27;;;9.60;86.50;;;;;;4988057;28;20612;-90
2023/04/25 13:47:25;;;;;;;1.42;1.20;;;9.50;86.00;;;;;;5014249;28;22799;-90
2023/04/25 13:49:55;;;;;;;1.40;1.30;;;9.40;88.90;;;;;;4991069;28;20203;-90
2023/04/25 13:52:23;;;;;;;2.28;1.20;;;9.20;90.50;;;;;;4981023;28;20204;-89
2023/04/25 13:54:51;;;;;;;1.38;1.27;;;9.10;90.50;;;;;;4994335;28;20203;-89
2023/04/25 13:57:19;;;;;;;2.22;1.20;;;8.90;91.00;;;;;;4989870;28;20238;-89
2023/04/25 13:59:46;;;;;;;1.75;1.30;;;8.70;92.10;;;;;;4990697;28;20203;-89
2023/04/25 14:02:14;;;;;;;1.35;1.25;;;8.70;93.20;;;;;;5011954;28;20253;-89
2023/04/25 14:04:41;;;;;;;1.90;1.20;;;8.50;93.40;;;;;;4994973;28;20199;-88
2023/04/25 14:07:08;;;;;;;2.35;1.20;;;8.60;93.80;;;;;;5010643;28;20210;-88
2023/04/25 14:09:35;;;;;;;1.23;1.13;;;8.60;93.10;;;;;;5004418;28;20200;-90
2023/04/25 14:12:02;;;;;;;1.20;1.05;;;8.50;93.60;;;;;;5007711;28;20783;-90
2023/04/25 14:14:30;;;;;;;1.25;1.15;;;8.60;93.90;;;;;;4997522;28;20203;-89
2023/04/25 14:16:57;;;;;;;2.38;1.20;;;8.80;93.80;;;;;;5009838;28;20230;-90
2023/04/25 14:19:24;;;;;;;1.48;1.38;;;9.00;93.20;;;;;;5008706;28;20199;-89
2023/04/25 14:21:53;;;;;;;1.27;1.17;;;9.10;92.00;;;;;;4999911;28;20239;-91
2023/04/25 14:24:20;;;;;;;1.30;1.20;;;9.10;91.90;;;;;;5006949;28;20211;-89
2023/04/25 14:26:53;;;;;;;1.60;1.30;;;9.10;92.70;;;;;;5004398;28;20207;-89
2023/04/25 14:29:33;;;;;;;1.10;1.00;;;9.10;92.20;;;;;;5002701;28;20562;-89
2023/04/25 14:32:00;;;;;;;1.42;1.20;;;8.80;92.90;;;;;;4997024;28;20199;-89
2023/04/25 14:34:27;;;;;;;1.88;1.20;;;8.80;93.00;;;;;;5005157;28;20683;-90
2023/04/25 14:36:54;;;;;;;1.13;1.02;;;8.60;93.60;;;;;;5011940;28;20270;-90
2023/04/25 14:39:21;;;;;;;0.90;0.90;;;8.80;94.30;;;;;;5000350;28;20215;-90
2023/04/25 14:41:48;;;;;;;1.15;1.08;;;9.00;93.50;;;;;;4995461;28;20258;-90
2023/04/25 14:44:15;;;;;;;1.10;0.90;;;9.10;93.20;;;;;;5028582;28;20211;-91
2023/04/25 14:49:24;;;;;;;1.17;1.00;;;9.50;91.00;;;;;;5009411;28;20568;-89
2023/04/25 14:51:51;;;;;;;1.05;1.05;;;9.70;90.60;;;;;;5015414;28;20679;-91
2023/04/25 14:54:18;;;;;;;3.35;0.85;;;9.80;90.60;;;;;;5014997;28;20202;-89
2023/04/25 14:56:46;;;;;;;1.25;1.10;;;9.80;90.60;;;;;;4999098;28;20219;-89
2023/04/25 15:11:47;;;;;;;1.30;1.20;;;9.70;89.00;;;;;;4981974;28;20291;-90
2023/04/25 15:17:41;;;;;;;1.20;1.10;;;9.90;90.20;;;;;;4947272;28;20570;-91
2023/04/25 15:20:29;;;;;;;1.25;0.98;;;9.80;90.20;;;;;;4969655;28;20235;-86
2023/04/25 15:23:43;;;;;;;1.05;0.98;;;9.70;90.60;;;;;;4978480;28;20307;-94
2023/04/25 15:43:29;;;;;;;1.17;1.08;;;9.70;90.80;;;;;;5035232;28;20233;-92
2023/04/25 15:45:56;;;;;;;1.85;1.75;;;9.70;91.00;;;;;;5021076;28;20194;-93
2023/04/25 15:48:23;;;;;;;1.30;1.20;;;9.80;90.90;;;;;;5038645;28;20294;-92
2023/04/25 15:50:50;;;;;;;2.13;1.73;;;9.60;90.50;;;;;;5024873;28;20289;-92
2023/04/25 15:53:17;;;;;;;1.80;1.70;;;9.60;89.00;;;;;;5048515;28;20193;-92
2023/04/25 15:55:44;;;;;;;1.85;1.75;;;9.50;87.50;;;;;;5122962;23;20228;-92
2023/04/25 15:58:12;;;;;;;1.80;1.63;;;9.50;88.90;;;;;;5000805;28;20225;-93
2023/04/25 16:00:40;;;;;;;2.53;1.73;;;9.40;89.70;;;;;;5004858;28;20196;-94
2023/04/25 16:08:39;;;;;;;1.83;1.60;;;9.40;91.10;;;;;;4999981;28;20187;-91
2023/04/25 16:11:06;;;;;;;2.20;2.00;;;9.10;91.80;;;;;;5001347;23;20204;-93
2023/04/25 16:16:07;;;;;;;1.50;1.40;;;9.00;93.20;;;;;;5045165;28;20206;-90
2023/04/25 16:18:34;;;;;;;2.30;1.30;;;8.90;91.80;;;;;;5021427;28;20246;-92
2023/04/25 16:21:01;;;;;;;1.90;1.70;;;8.90;91.80;;;;;;5022057;28;20200;-89
2023/04/25 16:23:28;;;;;;;1.90;1.80;;;8.80;91.70;;;;;;5008118;28;20214;-88
2023/04/25 16:25:55;;;;;;;1.98;1.63;;;8.90;91.70;;;;;;4977249;28;20772;-87
2023/04/25 16:28:22;;;;;;;2.15;1.95;;;8.80;91.80;;;;;;4999836;28;20199;-89
2023/04/25 16:30:50;;;;;;;2.10;1.90;;;8.80;91.60;;;;;;5017660;28;20204;-87
2023/04/25 16:33:17;;;;;;;2.28;1.90;;;8.80;91.80;;;;;;5021371;28;20203;-89
2023/04/25 16:35:43;;;;;;;2.22;2.03;;;8.80;92.40;;;;;;5018166;28;20271;-92
2023/04/25 16:38:10;;;;;;;2.85;1.98;;;8.80;92.20;;;;;;5030781;28;20235;-92
2023/04/25 16:40:37;;;;;;;2.40;2.20;;;8.80;92.80;;;;;;5034732;28;20246;-91
2023/04/25 16:43:04;;;;;;;2.22;2.03;;;8.70;92.60;;;;;;5265358;23;20227;-92
2023/04/25 16:45:31;;;;;;;2.92;2.63;;;8.70;92.80;;;;;;5359648;22;20202;-92
2023/04/25 16:47:59;;;;;;;3.15;2.40;;;8.70;92.40;;;;;;5051883;28;20183;-90
2023/04/25 16:50:26;;;;;;;3.95;2.65;;;8.70;91.70;;;;;;5047588;28;20203;-90
2023/04/25 16:52:53;;;;;;;2.60;2.40;;;8.70;91.90;;;;;;5024296;28;20286;-89
2023/04/25 16:55:20;;;;;;;3.15;2.30;;;8.70;92.00;;;;;;5035844;28;20225;-92
2023/04/25 16:57:47;;;;;;;5.25;2.50;;;8.70;92.10;;;;;;5144783;23;20227;-92
2023/04/25 17:00:15;;;;;;;2.67;2.47;;;8.70;92.10;;;;;;5022237;28;20199;-93
2023/04/25 17:02:42;;;;;;;2.72;2.45;;;8.60;92.50;;;;;;5008665;28;20261;-91
2023/04/25 17:08:04;;;;;;;2.97;2.28;;;8.60;91.50;;;;;;5161007;27;20561;-91
2023/04/25 17:10:31;;;;;;;3.00;2.70;;;8.60;92.10;;;;;;5139823;27;20191;-91
2023/04/25 17:12:58;;;;;;;3.35;2.70;;;8.60;91.80;;;;;;5115594;28;20199;-92
2023/04/25 17:15:25;;;;;;;2.88;2.63;;;8.60;92.90;;;;;;5143984;27;20202;-93
2023/04/25 17:17:52;;;;;;;2.92;2.72;;;8.50;92.80;;;;;;5133435;27;20228;-91
2023/04/25 17:20:19;;;;;;;3.08;2.78;;;8.50;92.90;;;;;;5121334;28;20192;-93
2023/04/25 17:22:46;;;;;;;3.08;2.50;;;8.50;93.20;;;;;;5122887;28;20206;-92
2023/04/25 17:25:14;;;;;;;3.00;2.70;;;8.50;93.10;;;;;;5112056;28;20199;-94
2023/04/25 17:27:41;;;;;;;3.63;2.63;;;8.60;93.10;;;;;;5106103;28;20228;-93
2023/04/25 17:30:09;;;;;;;2.50;2.30;;;8.60;93.10;;;;;;5109666;28;20220;-93
2023/04/25 17:32:36;;;;;;;4.10;3.58;;;8.50;93.40;;;;;;5116486;28;20211;-92
2023/04/25 17:35:03;;;;;;;2.90;2.60;;;8.60;93.30;;;;;;5113856;28;20203;-93
2023/04/25 17:37:30;;;;;;;3.83;2.65;;;8.60;92.90;;;;;;5109509;28;20197;-91
2023/04/25 17:39:57;;;;;;;4.93;3.20;;;8.60;92.80;;;;;;5096524;28;20965;-91
2023/04/25 17:42:26;;;;;;;3.67;3.25;;;8.50;93.40;;;;;;5121645;28;20176;-91
2023/04/25 17:44:54;;;;;;;3.35;2.85;;;8.50;93.50;;;;;;5113768;28;20201;-92
2023/04/25 17:47:21;;;;;;;2.95;2.47;;;8.50;93.20;;;;;;5093238;28;20249;-93
2023/04/25 17:49:48;;;;;;;2.83;2.50;;;8.50;93.40;;;;;;5113090;28;20205;-92
2023/04/25 17:52:16;;;;;;;3.17;2.88;;;8.50;93.10;;;;;;5095634;28;20204;-91
2023/04/25 17:54:42;;;;;;;3.25;2.72;;;8.50;93.40;;;;;;5123684;28;20180;-93
2023/04/25 17:57:10;;;;;;;2.80;2.60;;;8.60;93.10;;;;;;5328520;22;20227;-91
2023/04/25 17:59:38;;;;;;;3.55;3.00;;;8.60;93.10;;;;;;5221933;22;20499;-92
2023/04/25 18:02:06;;;;;;;3.42;2.80;;;8.50;93.50;;;;;;5234021;22;20224;-93
2023/04/25 18:04:34;;;;;;;3.20;2.78;;;8.50;93.40;;;;;;5081648;28;20200;-89
2023/04/25 18:07:01;;;;;;;3.47;3.17;;;8.40;93.60;;;;;;5109010;28;20311;-90
2023/04/25 18:09:28;;;;;;;4.47;3.20;;;8.50;93.80;;;;;;5111245;28;20249;-92
2023/04/25 18:11:55;;;;;;;4.10;3.20;;;8.40;93.60;;;;;;5112513;27;20180;-91
2023/04/25 18:14:23;;;;;;;4.32;3.13;;;8.50;93.20;;;;;;5401100;22;20233;-91
2023/04/25 19:13:36;;;;;;;5.10;3.58;;;7.10;99.70;;;;;;5525841;23;20238;-90
2023/04/25 19:34:13;;;;;;;4.82;3.58;;;7.30;98.50;;;;;;5444479;23;20223;-90
2023/04/25 19:49:33;;;;;;;5.45;4.68;;;7.30;99.30;;;;;;5269157;22;20230;-91
2023/04/25 20:07:35;;;;;;;4.95;3.85;;;7.30;99.70;;;;;;5922443;22;20217;-91
2023/04/25 20:10:03;;;;;;;4.85;3.60;;;7.40;99.30;;;;;;5034209;28;20206;-91
2023/04/25 20:22:54;;;;;;;5.25;4.10;;;7.10;99.40;;;;;;5372316;22;20229;-90
2023/04/25 20:25:21;;;;;;;4.60;3.75;;;7.00;99.80;;;;;;5048716;28;20210;-90
2023/04/25 20:27:48;;;;;;;4.75;4.10;;;7.00;99.90;;;;;;5053106;28;20214;-90
2023/04/25 20:30:15;;;;;;;4.80;4.18;;;7.00;99.90;;;;;;5051026;28;20255;-90
2023/04/25 20:43:05;;;;;;;5.75;4.20;;;7.00;99.90;;;;;;5818422;22;20234;-91
2023/04/25 21:01:06;;;;;;;4.43;4.03;;;7.00;99.90;;;;;;5687948;22;20236;-90
2023/04/25 21:06:09;;;;;;;4.22;3.83;;;6.90;99.90;;;;;;5083041;23;20210;-90
2023/04/25 21:39:41;;;;;;;3.90;3.50;;;6.60;99.90;;;;;;5249856;22;20215;-90
2023/04/25 21:42:09;;;;;;;5.28;4.00;;;6.60;99.90;;;;;;5211066;23;20222;-91
2023/04/25 21:44:36;;;;;;;5.15;3.53;;;6.60;99.90;;;;;;5031976;28;20278;-90
2023/04/25 21:57:26;;;;;;;5.80;4.55;;;6.60;99.90;;;;;;6104831;22;20173;-91
2023/04/25 22:10:45;;;;;;;5.40;4.28;;;6.70;99.90;;;;;;5564660;23;20205;-91
2023/04/25 23:33:29;;;;;;;7.90;6.15;;;7.10;99.60;;;;;;5988619;22;25099;-91
